< < Back
Terminal Aerodrome Forecast


Current Version              Previous Versions:   1  2  3  4  5  6  7  8  9  

Terminal Aerodrome Forecast

775
FTUS44 KOHX 222320
TAFBNA
TAF
KBNA 222320Z 2300/2324 26006KT P6SM SCT045 BKN110
     FM231000 00000KT 4SM BR SCT250
     FM231300 18002KT P6SM SCT250
     FM231800 17004KT P6SM VCSH SCT045 BKN120=



Latest METAR

499
SAUS70 KWBC 240100 RRJ
MTRBNA
METAR KBNA 240053Z 18009KT 10SM FEW049TCU SCT060 BKN140 BKN250 28/21
A2998 RMK AO2 SLP144 CB DSNT E TCU SW T02830211


USA.gov is the U.S. government's official web portal to all federal, state and local government web resources and services.